Time;durP1;ratioP1;P1;durP2;ratioP2;P2;SDS_P1;SDS_P2;PMS_P1;PMS_P2;Temp;Humidity;BMP_temperature;BMP_pressure;BME280_temperature;BME280_humidity;BME280_pressure;Samples;Min_cycle;Max_cycle;Signal;HPM_P1;HPM_P2
2023/03/07 00:00:52;;;;;;;27.63;16.58;;;26.60;99.90;;;;;;5073207;28;20516;-67
2023/03/07 00:03:19;;;;;;;30.90;17.30;;;26.60;99.90;;;;;;5073255;28;20495;-67
2023/03/07 00:05:46;;;;;;;27.50;18.20;;;26.50;99.90;;;;;;5073298;28;20484;-66
2023/03/07 00:08:13;;;;;;;38.17;19.70;;;26.50;99.90;;;;;;5073164;28;20025;-66
2023/03/07 00:10:39;;;;;;;31.75;18.63;;;26.60;99.90;;;;;;5073821;28;20054;-67
2023/03/07 00:13:06;;;;;;;26.40;17.75;;;26.50;99.90;;;;;;5073545;28;20040;-67
2023/03/07 00:15:32;;;;;;;33.90;18.73;;;26.50;99.90;;;;;;5073733;28;20099;-66
2023/03/07 00:17:59;;;;;;;31.38;18.75;;;26.50;99.90;;;;;;5073541;28;20082;-66
2023/03/07 00:20:25;;;;;;;36.28;20.33;;;26.50;99.90;;;;;;5073302;28;20108;-67
2023/03/07 00:22:52;;;;;;;30.10;19.58;;;26.60;99.90;;;;;;5073083;28;20557;-66
2023/03/07 00:25:18;;;;;;;30.67;19.02;;;26.60;99.90;;;;;;5073227;28;20036;-67
2023/03/07 00:27:45;;;;;;;29.88;17.20;;;26.70;99.90;;;;;;5073139;28;20184;-66
2023/03/07 00:30:12;;;;;;;36.15;19.10;;;26.60;99.90;;;;;;5073164;28;20037;-66
2023/03/07 00:32:38;;;;;;;30.17;16.77;;;26.60;99.90;;;;;;5072880;28;20024;-66
2023/03/07 00:35:05;;;;;;;29.38;16.45;;;26.60;99.90;;;;;;5073095;28;20025;-67
2023/03/07 00:37:32;;;;;;;36.13;19.33;;;26.60;99.90;;;;;;5072950;28;20485;-67
2023/03/07 00:39:58;;;;;;;30.40;18.48;;;26.60;99.90;;;;;;5073015;28;20025;-66
2023/03/07 00:42:25;;;;;;;32.33;19.50;;;26.50;99.90;;;;;;5073015;28;20408;-67
2023/03/07 00:44:51;;;;;;;35.53;20.95;;;26.50;99.90;;;;;;5072985;28;20024;-67
2023/03/07 00:47:18;;;;;;;35.38;20.65;;;26.60;99.90;;;;;;5072736;28;20492;-67
2023/03/07 00:49:44;;;;;;;37.67;20.20;;;26.60;99.90;;;;;;5073018;28;20025;-66
2023/03/07 00:52:11;;;;;;;31.17;20.70;;;26.60;99.90;;;;;;5072781;28;20028;-67
2023/03/07 00:54:37;;;;;;;29.13;19.80;;;26.60;99.90;;;;;;5072708;28;20044;-66
2023/03/07 00:57:04;;;;;;;41.45;21.33;;;26.70;99.90;;;;;;5072781;28;20020;-66
2023/03/07 00:59:30;;;;;;;39.53;21.65;;;26.70;99.90;;;;;;5074406;28;20021;-66
2023/03/07 01:01:57;;;;;;;45.25;26.50;;;26.70;99.90;;;;;;5076324;28;20025;-67
2023/03/07 01:04:23;;;;;;;55.25;37.83;;;26.70;99.90;;;;;;5076343;28;20435;-67
2023/03/07 01:06:50;;;;;;;39.83;25.73;;;26.70;99.90;;;;;;5076377;28;20021;-67
2023/03/07 01:09:17;;;;;;;54.00;29.42;;;26.70;99.90;;;;;;5076235;28;20511;-67
2023/03/07 01:11:43;;;;;;;38.97;24.98;;;26.60;99.90;;;;;;5076058;28;20519;-67
2023/03/07 01:14:10;;;;;;;40.47;23.85;;;26.70;99.90;;;;;;5076192;28;20033;-67
2023/03/07 01:16:37;;;;;;;44.92;21.90;;;26.70;99.90;;;;;;5076042;28;20025;-66
2023/03/07 01:19:06;;;;;;;38.25;22.67;;;26.70;99.90;;;;;;5076124;28;20016;-67
2023/03/07 01:21:36;;;;;;;42.72;24.60;;;26.70;99.90;;;;;;5076129;28;20032;-67
2023/03/07 01:24:04;;;;;;;41.50;21.92;;;26.70;99.90;;;;;;5075923;28;20086;-67
2023/03/07 01:26:32;;;;;;;46.38;23.63;;;26.80;99.90;;;;;;5076039;28;20477;-67
2023/03/07 01:29:01;;;;;;;44.90;25.52;;;26.70;99.90;;;;;;5075694;28;20102;-68
2023/03/07 01:31:29;;;;;;;40.92;23.75;;;26.80;99.90;;;;;;5075805;28;20028;-66
2023/03/07 01:33:55;;;;;;;41.22;23.13;;;26.90;99.90;;;;;;5075865;28;20098;-66
2023/03/07 01:36:28;;;;;;;45.22;25.08;;;26.90;99.90;;;;;;5076399;28;20032;-66
2023/03/07 01:39:03;;;;;;;42.40;24.67;;;27.00;99.90;;;;;;5076549;28;20396;-66
2023/03/07 01:41:31;;;;;;;53.75;30.58;;;27.00;99.90;;;;;;5077101;28;20095;-67
2023/03/07 01:43:59;;;;;;;53.90;28.13;;;27.00;99.90;;;;;;5076261;28;20039;-66
2023/03/07 01:46:30;;;;;;;43.88;28.92;;;27.00;99.90;;;;;;5076438;28;20481;-67
2023/03/07 01:48:59;;;;;;;46.33;28.08;;;27.00;99.90;;;;;;5076322;28;20029;-67
2023/03/07 01:51:26;;;;;;;48.70;28.42;;;27.00;99.90;;;;;;5076183;28;20059;-67
2023/03/07 01:53:54;;;;;;;41.42;24.92;;;27.00;99.90;;;;;;5076000;28;20032;-67
2023/03/07 01:56:22;;;;;;;42.50;24.15;;;27.10;99.90;;;;;;5076276;28;20115;-66
2023/03/07 01:58:49;;;;;;;79.70;47.80;;;27.10;99.90;;;;;;5076093;28;20021;-66
2023/03/07 02:01:16;;;;;;;65.15;35.70;;;27.20;99.90;;;;;;5076089;28;20048;-66
2023/03/07 02:03:49;;;;;;;52.92;30.70;;;27.30;99.90;;;;;;5062851;28;20036;-67
2023/03/07 02:06:17;;;;;;;42.55;24.15;;;27.30;99.90;;;;;;5055925;28;20079;-67
2023/03/07 02:08:46;;;;;;;44.13;23.52;;;27.30;99.90;;;;;;5055697;28;20033;-67
2023/03/07 02:11:13;;;;;;;45.85;29.27;;;27.30;99.90;;;;;;5059441;28;20020;-64
2023/03/07 02:13:39;;;;;;;37.72;21.60;;;27.30;99.90;;;;;;5064265;28;20036;-64
2023/03/07 02:16:06;;;;;;;47.75;31.23;;;27.30;99.90;;;;;;5065440;28;20074;-65
2023/03/07 02:18:38;;;;;;;50.30;29.33;;;27.40;99.90;;;;;;5066417;28;20036;-67
2023/03/07 02:21:32;;;;;;;37.37;21.67;;;27.40;99.90;;;;;;5070700;28;20021;-67
2023/03/07 02:24:04;;;;;;;45.40;25.95;;;27.40;99.90;;;;;;5065341;28;20020;-68
2023/03/07 02:26:30;;;;;;;34.42;22.08;;;27.50;99.90;;;;;;5074821;28;20016;-68
2023/03/07 02:28:59;;;;;;;51.38;31.00;;;27.50;99.90;;;;;;5074765;28;20119;-68
2023/03/07 02:31:26;;;;;;;38.03;21.50;;;27.50;99.90;;;;;;5073046;28;20028;-68
2023/03/07 02:33:53;;;;;;;33.38;19.48;;;27.50;99.90;;;;;;5070158;28;20090;-68
2023/03/07 02:36:29;;;;;;;37.42;20.48;;;27.60;99.90;;;;;;5064920;28;20016;-68
2023/03/07 02:38:57;;;;;;;36.47;20.50;;;27.60;99.90;;;;;;5074071;28;20025;-69
2023/03/07 02:41:28;;;;;;;42.78;22.80;;;27.70;99.90;;;;;;5074326;28;20070;-68
2023/03/07 02:43:54;;;;;;;44.65;23.98;;;27.70;99.90;;;;;;5074132;28;20029;-68
2023/03/07 02:46:21;;;;;;;50.17;28.42;;;27.70;99.90;;;;;;5074461;28;20047;-68
2023/03/07 02:48:47;;;;;;;37.53;24.20;;;27.70;99.90;;;;;;5068877;28;20021;-68
2023/03/07 02:51:15;;;;;;;44.72;23.90;;;27.80;99.90;;;;;;5056590;28;20021;-68
2023/03/07 02:53:41;;;;;;;45.22;22.10;;;27.70;99.90;;;;;;5063744;28;20379;-68
2023/03/07 02:56:08;;;;;;;40.08;25.70;;;27.80;99.90;;;;;;5070349;28;20025;-67
2023/03/07 02:58:34;;;;;;;36.28;21.83;;;27.80;99.90;;;;;;5065309;28;20025;-68
2023/03/07 03:01:01;;;;;;;41.50;20.35;;;27.80;99.90;;;;;;5061904;28;20078;-68
2023/03/07 03:03:27;;;;;;;31.33;20.30;;;27.90;99.90;;;;;;5060809;28;20051;-67
2023/03/07 03:05:54;;;;;;;37.05;22.52;;;27.90;99.90;;;;;;5063390;28;20074;-69
2023/03/07 03:08:21;;;;;;;42.78;20.48;;;27.90;99.90;;;;;;5062857;28;20021;-66
2023/03/07 03:10:53;;;;;;;40.00;25.55;;;28.00;99.90;;;;;;5061000;28;20066;-65
2023/03/07 03:13:20;;;;;;;33.15;18.65;;;28.00;99.90;;;;;;5062142;28;20044;-68
2023/03/07 03:15:46;;;;;;;30.08;16.75;;;28.00;99.90;;;;;;5063328;28;20052;-68
2023/03/07 03:18:13;;;;;;;31.55;16.08;;;28.10;99.90;;;;;;5062489;28;20021;-67
2023/03/07 03:20:41;;;;;;;27.38;15.55;;;28.10;99.90;;;;;;5060801;28;20504;-69
2023/03/07 03:23:08;;;;;;;30.00;17.23;;;28.10;99.90;;;;;;5055156;28;20027;-68
2023/03/07 03:25:34;;;;;;;27.17;16.80;;;28.20;99.90;;;;;;5061446;28;20060;-67
2023/03/07 03:28:01;;;;;;;26.98;18.02;;;28.30;99.90;;;;;;5059812;28;20052;-68
2023/03/07 03:30:31;;;;;;;47.95;29.40;;;28.30;99.90;;;;;;5061920;28;20035;-72
2023/03/07 03:32:58;;;;;;;52.47;33.38;;;28.30;99.90;;;;;;5062515;28;20397;-68
2023/03/07 03:35:24;;;;;;;29.35;18.90;;;28.30;99.90;;;;;;5060776;28;20048;-68
2023/03/07 03:37:51;;;;;;;37.42;20.08;;;28.30;99.90;;;;;;5061783;28;20104;-68
2023/03/07 03:40:17;;;;;;;35.00;21.65;;;28.40;99.90;;;;;;5062297;28;20025;-68
2023/03/07 03:42:44;;;;;;;46.30;30.25;;;28.40;99.90;;;;;;5060695;28;20047;-68
2023/03/07 03:45:13;;;;;;;33.47;18.48;;;28.50;99.90;;;;;;5061860;28;20021;-70
2023/03/07 03:47:40;;;;;;;26.05;16.20;;;28.50;99.90;;;;;;5060919;28;20017;-69
2023/03/07 03:50:07;;;;;;;32.97;19.02;;;28.50;99.90;;;;;;5062938;28;20507;-68
2023/03/07 03:52:35;;;;;;;31.63;23.40;;;28.50;99.90;;;;;;5062542;28;20025;-69
2023/03/07 03:55:02;;;;;;;39.97;22.60;;;28.50;99.90;;;;;;5061144;28;20020;-69
2023/03/07 03:57:28;;;;;;;30.35;17.25;;;28.50;99.90;;;;;;5062347;28;20017;-68
2023/03/07 03:59:55;;;;;;;34.25;20.00;;;28.50;99.90;;;;;;5062542;28;20045;-68
2023/03/07 04:02:22;;;;;;;34.00;19.40;;;28.60;99.90;;;;;;5061408;28;20396;-68
2023/03/07 04:04:48;;;;;;;35.35;17.73;;;28.70;99.90;;;;;;5062441;28;20013;-68
2023/03/07 04:07:15;;;;;;;34.83;17.50;;;28.70;99.90;;;;;;5062147;28;20023;-68
2023/03/07 04:09:41;;;;;;;27.40;17.10;;;28.80;99.90;;;;;;5060593;28;20027;-67
2023/03/07 04:12:08;;;;;;;27.58;15.65;;;28.80;99.90;;;;;;5060638;28;20044;-67
2023/03/07 04:14:34;;;;;;;34.13;16.50;;;28.70;99.90;;;;;;5061943;28;20070;-67
2023/03/07 04:17:01;;;;;;;34.53;16.27;;;28.70;99.90;;;;;;5060440;28;20028;-68
2023/03/07 04:19:28;;;;;;;26.63;14.10;;;28.70;99.90;;;;;;5062030;28;20047;-68
2023/03/07 04:21:54;;;;;;;28.27;13.45;;;28.70;99.90;;;;;;5060924;28;20045;-67
2023/03/07 04:24:21;;;;;;;26.13;13.50;;;28.80;99.90;;;;;;5059849;28;20032;-64
2023/03/07 04:26:47;;;;;;;31.02;13.93;;;28.80;99.90;;;;;;5062164;28;20021;-67
2023/03/07 04:29:14;;;;;;;27.30;14.65;;;28.80;99.90;;;;;;5061748;28;20028;-63
2023/03/07 04:31:41;;;;;;;27.20;13.77;;;28.80;99.90;;;;;;5056723;28;20029;-64
2023/03/07 04:34:07;;;;;;;25.08;12.50;;;28.80;99.90;;;;;;5061737;28;20025;-63
2023/03/07 04:36:34;;;;;;;26.60;14.05;;;28.90;99.90;;;;;;5062898;28;20029;-64
2023/03/07 04:39:01;;;;;;;32.08;13.95;;;28.90;99.90;;;;;;5064590;28;20465;-68
2023/03/07 04:41:27;;;;;;;25.83;14.85;;;28.90;99.90;;;;;;5066050;28;20099;-68
2023/03/07 04:43:54;;;;;;;27.00;14.10;;;28.90;99.90;;;;;;5065604;28;20060;-68
2023/03/07 04:46:20;;;;;;;27.63;14.18;;;29.00;99.90;;;;;;5064232;28;20444;-68
2023/03/07 04:48:47;;;;;;;30.58;15.38;;;29.10;99.90;;;;;;5065946;28;20013;-68
2023/03/07 04:51:14;;;;;;;28.67;14.10;;;29.10;99.90;;;;;;5063377;28;20025;-68
2023/03/07 04:53:41;;;;;;;31.73;15.65;;;29.20;99.90;;;;;;5062056;28;20043;-71
2023/03/07 04:56:08;;;;;;;31.15;14.07;;;29.30;99.90;;;;;;5061690;28;20039;-69
2023/03/07 04:58:36;;;;;;;26.23;13.27;;;29.40;99.90;;;;;;5061614;28;20017;-69
2023/03/07 05:01:03;;;;;;;26.92;13.02;;;29.40;99.90;;;;;;5062351;28;20077;-69
2023/03/07 05:03:30;;;;;;;28.23;13.88;;;29.40;99.90;;;;;;5062569;28;20457;-70
2023/03/07 05:06:03;;;;;;;33.65;13.50;;;29.50;99.90;;;;;;5061899;28;20525;-69
2023/03/07 05:08:30;;;;;;;34.88;14.45;;;29.50;99.90;;;;;;5066545;28;20499;-70
2023/03/07 05:10:57;;;;;;;31.08;13.95;;;29.60;99.90;;;;;;5067388;28;20098;-69
2023/03/07 05:13:24;;;;;;;27.67;13.70;;;29.60;99.90;;;;;;5065942;28;20470;-72
2023/03/07 05:15:52;;;;;;;24.48;12.20;;;29.60;99.90;;;;;;5066649;28;20013;-69
2023/03/07 05:18:20;;;;;;;29.13;12.48;;;29.70;99.90;;;;;;5062668;28;20021;-69
2023/03/07 05:20:50;;;;;;;30.90;12.93;;;29.70;99.90;;;;;;5065826;28;20482;-70
2023/03/07 05:23:18;;;;;;;26.63;12.38;;;29.70;99.90;;;;;;5058932;28;20063;-70
2023/03/07 05:25:46;;;;;;;24.85;11.90;;;29.80;99.90;;;;;;5063299;28;20047;-70
2023/03/07 05:28:13;;;;;;;22.77;10.73;;;29.80;99.90;;;;;;5062681;28;20024;-71
2023/03/07 05:30:39;;;;;;;20.88;10.98;;;29.80;99.90;;;;;;5063813;28;20488;-70
2023/03/07 05:33:06;;;;;;;18.55;10.35;;;29.90;99.90;;;;;;5061857;28;20032;-71
2023/03/07 05:35:33;;;;;;;24.02;10.70;;;30.00;99.90;;;;;;5063639;28;20008;-71
2023/03/07 05:38:00;;;;;;;26.65;10.85;;;30.00;99.90;;;;;;5061772;28;20043;-68
2023/03/07 05:40:26;;;;;;;24.88;11.23;;;30.10;99.90;;;;;;5062814;28;20552;-69
2023/03/07 05:42:53;;;;;;;24.13;11.85;;;30.10;99.90;;;;;;5064531;28;20052;-67
2023/03/07 05:45:20;;;;;;;24.67;12.48;;;30.20;99.90;;;;;;5064647;28;20066;-66
2023/03/07 05:47:46;;;;;;;21.45;11.23;;;30.20;99.90;;;;;;5060846;28;20064;-69
2023/03/07 05:50:13;;;;;;;20.80;11.25;;;30.20;99.90;;;;;;5063991;28;20443;-71
2023/03/07 05:52:40;;;;;;;20.77;10.88;;;30.20;99.90;;;;;;5062705;28;20028;-72
2023/03/07 05:55:07;;;;;;;20.13;10.40;;;30.40;99.90;;;;;;5063039;28;20100;-69
2023/03/07 05:57:34;;;;;;;21.88;10.63;;;30.30;99.90;;;;;;5061788;28;20042;-73
2023/03/07 06:00:00;;;;;;;21.40;9.98;;;30.40;99.90;;;;;;5064598;28;20289;-69
2023/03/07 06:02:27;;;;;;;23.60;11.93;;;30.50;99.90;;;;;;5063724;28;20519;-73
2023/03/07 06:04:53;;;;;;;20.02;10.82;;;30.50;99.90;;;;;;5065456;28;20020;-69
2023/03/07 06:07:20;;;;;;;22.60;11.25;;;30.50;99.90;;;;;;5063749;28;20024;-72
2023/03/07 06:09:46;;;;;;;16.55;10.00;;;30.60;99.90;;;;;;5062941;28;20012;-71
2023/03/07 06:12:13;;;;;;;27.75;11.18;;;30.60;99.90;;;;;;5064474;28;20513;-69
2023/03/07 06:14:39;;;;;;;19.33;8.73;;;30.70;99.90;;;;;;5063354;28;20028;-71
2023/03/07 06:17:06;;;;;;;18.92;8.75;;;30.70;99.90;;;;;;5062946;28;20032;-69
2023/03/07 06:19:33;;;;;;;23.70;9.75;;;30.70;99.90;;;;;;5064516;28;20024;-70
2023/03/07 06:21:59;;;;;;;26.85;9.50;;;30.70;99.90;;;;;;5062945;28;20049;-68
2023/03/07 06:24:26;;;;;;;18.13;8.40;;;30.70;99.90;;;;;;5061773;28;20046;-69
2023/03/07 06:26:52;;;;;;;18.75;9.10;;;30.90;99.90;;;;;;5061987;28;20385;-71
2023/03/07 06:29:19;;;;;;;18.58;9.88;;;30.90;99.90;;;;;;5062301;28;20021;-69
2023/03/07 06:31:45;;;;;;;23.17;10.07;;;30.90;99.90;;;;;;5062233;28;20535;-70
2023/03/07 06:34:12;;;;;;;21.38;9.20;;;30.90;99.90;;;;;;5060735;28;20029;-70
2023/03/07 06:36:39;;;;;;;20.27;9.88;;;31.10;99.90;;;;;;5062262;28;20062;-70
2023/03/07 06:39:06;;;;;;;17.20;8.98;;;31.20;99.90;;;;;;5071671;28;20020;-70
2023/03/07 06:41:32;;;;;;;18.42;8.75;;;31.30;99.90;;;;;;5074575;28;20027;-70
2023/03/07 06:43:59;;;;;;;23.63;10.15;;;31.40;99.90;;;;;;5074113;28;20094;-70
2023/03/07 06:46:25;;;;;;;16.30;8.98;;;31.70;99.90;;;;;;5074325;28;20021;-70
2023/03/07 06:48:54;;;;;;;25.23;12.45;;;31.70;99.90;;;;;;5074330;28;20024;-70
2023/03/07 06:51:20;;;;;;;23.17;11.45;;;31.70;99.90;;;;;;5074182;28;20119;-69
2023/03/07 06:53:47;;;;;;;22.38;13.70;;;31.70;99.90;;;;;;5074068;28;20024;-69
2023/03/07 06:56:14;;;;;;;21.33;10.65;;;31.60;99.90;;;;;;5065160;28;20035;-70
2023/03/07 06:58:41;;;;;;;30.45;15.07;;;31.60;99.90;;;;;;5054120;28;20047;-70
2023/03/07 07:01:14;;;;;;;21.30;9.75;;;31.60;99.90;;;;;;5056969;28;20028;-69
2023/03/07 07:03:40;;;;;;;20.25;10.82;;;31.50;99.90;;;;;;5063445;28;20031;-69
2023/03/07 07:06:07;;;;;;;21.00;9.93;;;31.60;99.90;;;;;;5064140;28;20040;-70
2023/03/07 07:08:33;;;;;;;24.77;10.10;;;31.70;99.90;;;;;;5061655;28;20393;-69
2023/03/07 07:11:00;;;;;;;23.05;10.43;;;31.70;99.90;;;;;;5069779;28;20024;-69
2023/03/07 07:13:26;;;;;;;26.27;10.75;;;31.90;99.90;;;;;;5073613;28;20040;-70
2023/03/07 07:15:53;;;;;;;23.27;9.32;;;31.90;99.90;;;;;;5074178;28;20017;-70
2023/03/07 07:18:19;;;;;;;23.30;9.40;;;32.00;99.90;;;;;;5074053;28;20016;-70
2023/03/07 07:20:53;;;;;;;24.58;9.93;;;32.00;99.90;;;;;;5073744;28;20027;-70
2023/03/07 07:23:20;;;;;;;23.05;10.52;;;32.00;99.90;;;;;;5073958;28;20499;-70
2023/03/07 07:25:47;;;;;;;19.17;9.63;;;32.10;99.90;;;;;;5073759;28;20112;-69
2023/03/07 07:28:13;;;;;;;23.42;10.35;;;32.10;99.90;;;;;;5073746;28;20135;-70
2023/03/07 07:30:40;;;;;;;16.75;8.68;;;32.10;99.90;;;;;;5073751;28;20029;-70
2023/03/07 07:33:06;;;;;;;18.75;8.98;;;32.00;99.90;;;;;;5073661;28;20107;-68
2023/03/07 07:35:33;;;;;;;22.27;8.30;;;32.00;99.90;;;;;;5073646;28;20025;-68
2023/03/07 07:37:59;;;;;;;20.50;9.43;;;31.90;99.90;;;;;;5073722;28;20020;-68
2023/03/07 07:40:26;;;;;;;18.13;8.85;;;31.70;99.90;;;;;;5073695;28;20103;-70
2023/03/07 07:42:53;;;;;;;22.02;9.88;;;31.70;99.90;;;;;;5073486;28;20104;-70
2023/03/07 07:45:22;;;;;;;18.77;9.32;;;31.60;99.90;;;;;;5074064;28;20025;-71
2023/03/07 07:47:49;;;;;;;20.38;10.02;;;31.50;99.90;;;;;;5073053;28;20067;-69
2023/03/07 07:50:18;;;;;;;24.75;10.68;;;31.50;99.90;;;;;;5066520;28;20043;-71
2023/03/07 07:52:44;;;;;;;23.10;10.38;;;31.50;99.90;;;;;;5054618;28;20044;-71
2023/03/07 07:55:13;;;;;;;24.17;10.63;;;31.70;99.90;;;;;;5053637;28;20212;-70
2023/03/07 07:57:40;;;;;;;22.38;11.10;;;31.70;99.90;;;;;;5057507;28;20484;-69
2023/03/07 08:00:09;;;;;;;26.23;10.45;;;31.70;99.90;;;;;;5073726;28;20527;-69
2023/03/07 08:02:37;;;;;;;20.40;10.18;;;31.70;99.90;;;;;;5073701;28;20025;-70
2023/03/07 08:05:09;;;;;;;18.98;10.00;;;31.70;99.90;;;;;;5073164;28;20098;-70
2023/03/07 08:07:35;;;;;;;16.42;9.60;;;31.70;99.90;;;;;;5072974;28;20403;-70
2023/03/07 08:10:02;;;;;;;23.35;10.98;;;31.70;99.90;;;;;;5073124;28;20497;-70
2023/03/07 08:12:29;;;;;;;21.70;10.63;;;31.80;99.90;;;;;;5073060;28;20045;-70
2023/03/07 08:14:55;;;;;;;20.38;10.02;;;31.90;99.90;;;;;;5073014;28;20032;-70
2023/03/07 08:17:22;;;;;;;24.08;12.10;;;31.90;99.90;;;;;;5073510;28;20021;-70
2023/03/07 08:19:48;;;;;;;20.30;11.40;;;31.90;99.90;;;;;;5073108;28;20013;-70
2023/03/07 08:22:15;;;;;;;19.92;10.93;;;31.90;99.90;;;;;;5073432;28;20024;-70
2023/03/07 08:24:42;;;;;;;34.95;18.75;;;31.90;99.90;;;;;;5073288;28;20050;-70
2023/03/07 08:27:09;;;;;;;58.38;37.85;;;31.90;99.90;;;;;;5073327;28;20021;-70
2023/03/07 08:29:35;;;;;;;31.23;20.67;;;31.90;99.90;;;;;;5078227;28;20031;-71
2023/03/07 08:32:02;;;;;;;25.02;14.60;;;32.00;99.90;;;;;;5061714;28;20039;-71
2023/03/07 08:34:31;;;;;;;21.92;10.13;;;32.00;99.90;;;;;;5063073;28;20461;-71
2023/03/07 08:36:57;;;;;;;18.23;9.80;;;32.00;99.90;;;;;;5063393;28;20021;-71
2023/03/07 08:39:24;;;;;;;17.50;9.77;;;32.10;99.90;;;;;;5061426;28;20017;-71
2023/03/07 08:41:50;;;;;;;16.85;8.85;;;32.10;99.90;;;;;;5061262;28;20545;-71
2023/03/07 08:44:17;;;;;;;21.50;11.50;;;32.10;99.90;;;;;;5063485;28;20028;-71
2023/03/07 08:46:43;;;;;;;23.02;11.23;;;32.10;99.90;;;;;;5063161;28;20027;-71
2023/03/07 08:49:10;;;;;;;31.98;15.60;;;32.10;99.90;;;;;;5061331;28;20112;-71
2023/03/07 08:51:36;;;;;;;20.90;12.32;;;32.10;99.90;;;;;;5063280;28;20051;-71
2023/03/07 08:54:03;;;;;;;23.48;11.20;;;32.00;99.90;;;;;;5063009;28;20029;-71
2023/03/07 08:56:30;;;;;;;22.77;10.75;;;32.00;99.90;;;;;;5061313;28;20056;-71
2023/03/07 08:58:56;;;;;;;20.08;12.30;;;32.00;99.90;;;;;;5063213;28;20481;-71
2023/03/07 09:01:23;;;;;;;22.02;11.55;;;31.90;99.90;;;;;;5062968;28;20044;-72
2023/03/07 09:03:49;;;;;;;27.05;12.70;;;31.80;99.90;;;;;;5061210;28;20024;-71
2023/03/07 09:06:18;;;;;;;28.90;14.35;;;31.70;99.90;;;;;;5063177;28;20035;-72
2023/03/07 09:08:46;;;;;;;28.15;14.50;;;31.40;99.90;;;;;;5063262;28;20090;-72
2023/03/07 09:11:13;;;;;;;28.70;16.35;;;31.20;99.90;;;;;;5072907;28;20035;-67
2023/03/07 09:13:39;;;;;;;33.63;17.25;;;31.00;99.90;;;;;;5072534;28;20123;-74
2023/03/07 09:16:07;;;;;;;23.67;12.60;;;31.00;99.90;;;;;;5063443;28;20029;-73
2023/03/07 09:18:35;;;;;;;26.08;11.50;;;30.80;99.90;;;;;;5061687;28;20460;-74
2023/03/07 09:21:03;;;;;;;26.25;11.93;;;30.80;99.90;;;;;;5065515;28;20025;-73
2023/03/07 09:23:30;;;;;;;24.13;9.65;;;30.90;99.90;;;;;;5065933;28;20055;-74
2023/03/07 09:26:00;;;;;;;17.83;10.13;;;30.90;99.90;;;;;;5064720;28;20117;-75
2023/03/07 09:28:27;;;;;;;23.65;12.73;;;30.90;99.90;;;;;;5065653;28;20016;-73
2023/03/07 09:30:53;;;;;;;19.05;10.07;;;30.90;99.90;;;;;;5067680;28;20032;-73
2023/03/07 09:33:20;;;;;;;16.27;7.95;;;30.80;99.90;;;;;;5064661;28;20063;-73
2023/03/07 09:35:47;;;;;;;15.73;9.38;;;30.80;99.90;;;;;;5070401;28;20342;-74
2023/03/07 09:38:14;;;;;;;24.63;10.10;;;30.70;99.90;;;;;;5076064;28;20090;-75
2023/03/07 09:40:43;;;;;;;17.45;9.38;;;30.80;99.90;;;;;;5075838;28;20469;-76
2023/03/07 09:43:20;;;;;;;17.90;7.53;;;30.80;99.90;;;;;;5076069;28;20035;-74
2023/03/07 09:46:17;;;;;;;17.20;7.55;;;30.70;99.90;;;;;;5073652;28;20377;-73
2023/03/07 09:48:56;;;;;;;12.57;7.57;;;30.70;99.90;;;;;;5056949;28;20090;-74
2023/03/07 09:51:32;;;;;;;17.58;8.77;;;30.60;99.90;;;;;;5064726;28;20377;-74
2023/03/07 09:54:08;;;;;;;70.63;48.95;;;30.50;99.90;;;;;;5064269;28;20040;-73
2023/03/07 09:56:40;;;;;;;324.25;236.57;;;30.50;99.90;;;;;;5064842;28;20074;-73
2023/03/07 09:59:08;;;;;;;;;;;30.40;99.90;;;;;;5065569;28;20047;-73
2023/03/07 10:01:37;;;;;;;37.08;19.98;;;30.30;99.90;;;;;;5064443;28;19904;-74
2023/03/07 10:04:05;;;;;;;250.55;124.70;;;30.30;99.90;;;;;;5063167;28;20048;-73
2023/03/07 10:06:39;;;;;;;132.95;73.00;;;30.10;99.90;;;;;;5065385;28;20028;-73
2023/03/07 10:09:20;;;;;;;78.90;41.85;;;30.10;99.90;;;;;;5064473;28;20359;-73
2023/03/07 10:12:03;;;;;;;61.88;28.70;;;30.10;99.90;;;;;;5064615;28;20432;-73
2023/03/07 10:14:47;;;;;;;101.55;43.85;;;30.00;99.90;;;;;;5064764;28;20124;-72
2023/03/07 10:17:19;;;;;;;41.53;18.23;;;29.90;99.90;;;;;;5065619;28;20028;-73
2023/03/07 10:19:48;;;;;;;132.85;50.90;;;29.90;99.90;;;;;;5063976;28;20082;-73
2023/03/07 10:22:16;;;;;;;73.93;32.92;;;29.90;99.90;;;;;;5063947;28;20027;-73
2023/03/07 10:24:52;;;;;;;44.05;23.48;;;29.80;99.90;;;;;;5055088;28;20100;-73
2023/03/07 10:27:22;;;;;;;174.75;102.72;;;29.80;99.90;;;;;;5054993;28;20029;-73
2023/03/07 10:29:50;;;;;;;31.58;20.42;;;29.80;99.90;;;;;;5056370;28;20354;-73
2023/03/07 10:32:27;;;;;;;22.80;12.48;;;29.70;99.90;;;;;;5065291;28;20013;-73
2023/03/07 10:35:01;;;;;;;18.67;11.10;;;29.60;99.90;;;;;;5065085;28;20477;-73
2023/03/07 10:37:49;;;;;;;102.38;65.68;;;29.70;99.90;;;;;;5064665;28;20017;-73
2023/03/07 10:40:23;;;;;;;79.70;45.50;;;29.70;99.90;;;;;;5063205;28;20023;-73
2023/03/07 10:42:49;;;;;;;94.07;47.95;;;29.80;99.90;;;;;;5064296;28;20104;-73
2023/03/07 10:45:16;;;;;;;144.43;75.00;;;29.70;99.90;;;;;;5063678;28;20074;-73
2023/03/07 10:47:43;;;;;;;110.05;51.67;;;29.70;99.90;;;;;;5065503;28;20047;-73
2023/03/07 10:50:44;;;;;;;65.50;30.92;;;29.70;99.90;;;;;;5064190;28;20100;-73
2023/03/07 10:53:31;;;;;;;29.45;14.55;;;29.70;99.90;;;;;;5064507;28;20052;-73
2023/03/07 10:56:14;;;;;;;22.35;11.88;;;29.70;99.90;;;;;;5065403;28;20048;-73
2023/03/07 10:59:02;;;;;;;15.77;9.40;;;29.70;99.90;;;;;;5065080;28;20050;-73
2023/03/07 11:01:30;;;;;;;29.77;11.88;;;29.60;99.90;;;;;;5064123;28;20028;-73
2023/03/07 11:04:01;;;;;;;22.55;10.57;;;29.50;99.90;;;;;;5063309;28;20144;-73
2023/03/07 11:06:31;;;;;;;29.10;12.65;;;29.50;99.90;;;;;;5063991;28;20033;-73
2023/03/07 11:09:10;;;;;;;24.17;12.05;;;29.50;99.90;;;;;;5063344;28;20501;-73
2023/03/07 11:11:37;;;;;;;21.75;10.30;;;29.50;99.90;;;;;;5064926;28;20031;-73
2023/03/07 11:14:09;;;;;;;26.48;11.82;;;29.40;99.90;;;;;;5063158;28;20029;-73
2023/03/07 11:16:58;;;;;;;29.15;13.05;;;29.40;99.90;;;;;;5063107;28;20020;-72
2023/03/07 11:19:37;;;;;;;29.27;14.52;;;29.40;99.90;;;;;;5060574;28;20043;-72
2023/03/07 11:22:27;;;;;;;26.08;13.65;;;29.40;99.90;;;;;;5062789;28;20021;-74
2023/03/07 11:25:17;;;;;;;29.73;13.77;;;29.40;99.90;;;;;;5064127;28;20517;-73
2023/03/07 11:27:45;;;;;;;25.77;13.05;;;29.40;99.90;;;;;;5061822;28;20039;-73
2023/03/07 11:30:14;;;;;;;28.20;12.90;;;29.40;99.90;;;;;;5063500;28;20059;-72
2023/03/07 11:32:59;;;;;;;34.22;16.92;;;29.30;99.90;;;;;;5064291;28;20024;-72
2023/03/07 11:35:43;;;;;;;33.70;17.00;;;29.30;99.90;;;;;;5062526;28;20409;-74
2023/03/07 11:38:24;;;;;;;29.95;15.57;;;29.30;99.90;;;;;;5073892;28;20482;-72
2023/03/07 11:40:59;;;;;;;35.58;17.48;;;29.30;99.90;;;;;;5073690;28;20021;-73
2023/03/07 11:43:49;;;;;;;30.55;17.02;;;29.30;99.90;;;;;;5073181;28;20158;-73
2023/03/07 11:46:31;;;;;;;30.65;16.55;;;29.30;99.90;;;;;;5072973;28;20017;-73
2023/03/07 11:49:26;;;;;;;33.97;15.52;;;29.30;99.90;;;;;;5053558;28;20029;-73
2023/03/07 11:52:32;;;;;;;37.03;15.13;;;29.30;99.90;;;;;;5054200;28;20025;-72
2023/03/07 11:55:07;;;;;;;37.63;17.75;;;29.10;99.90;;;;;;5054251;28;20094;-73
2023/03/07 11:57:55;;;;;;;41.20;19.33;;;29.20;99.90;;;;;;5054021;28;20103;-73
2023/03/07 12:00:41;;;;;;;48.92;23.73;;;29.20;99.90;;;;;;5055803;28;20017;-70
2023/03/07 12:03:29;;;;;;;57.60;26.33;;;29.10;99.90;;;;;;5056323;28;20497;-70
2023/03/07 12:06:25;;;;;;;66.28;30.38;;;29.10;99.90;;;;;;5053900;28;20029;-70
2023/03/07 12:09:04;;;;;;;71.05;31.63;;;29.00;99.90;;;;;;5060982;28;20032;-70
2023/03/07 12:11:43;;;;;;;74.60;34.33;;;29.10;99.90;;;;;;5064130;28;20129;-69
2023/03/07 12:14:49;;;;;;;84.15;34.97;;;29.00;99.90;;;;;;5060988;28;20032;-74
2023/03/07 12:17:34;;;;;;;75.25;34.45;;;29.00;99.90;;;;;;5064495;28;20476;-70
2023/03/07 12:20:04;;;;;;;66.95;32.88;;;29.00;99.90;;;;;;5073325;28;20238;-70
2023/03/07 12:23:04;;;;;;;64.13;30.10;;;29.00;99.90;;;;;;5066511;28;20100;-71
2023/03/07 12:25:41;;;;;;;54.33;27.73;;;28.90;99.90;;;;;;5062203;28;20088;-68
2023/03/07 12:28:18;;;;;;;54.65;25.35;;;28.90;99.90;;;;;;5061651;28;20023;-68
2023/03/07 12:30:53;;;;;;;47.58;22.58;;;28.90;99.90;;;;;;5061542;28;20021;-68
2023/03/07 12:33:28;;;;;;;50.35;22.25;;;28.80;99.90;;;;;;5060611;28;20500;-67
2023/03/07 12:36:00;;;;;;;41.22;21.27;;;28.80;99.90;;;;;;5061828;28;20033;-68
2023/03/07 12:38:42;;;;;;;43.63;20.35;;;28.70;99.90;;;;;;5062567;28;20017;-68
2023/03/07 12:41:11;;;;;;;43.33;19.98;;;28.70;99.90;;;;;;5062585;28;20047;-67